First Clarity — A8RM8 — position and weather

sailwx.info

Track history (hours):
 
Tides and Currents Weather Stations Pressure Air Temp Water Temp Dewpoint Dewpoint Depression Visibility Wind Speed Wind Dir Waves Ship Positions

First Clarity

Last reported at 2014-Nov-26 13:17 UTC. Time now 2014-Nov-27 11:55 UTC.
Position N 35°05' E 139°41'.

Length 104 m; draft 5.7 m.

Type: Cargo ship. MMSI: 636014129.

Date/timePositionNaut miles runAvg speedWind from/ knotsBaromVisibWave heightAir tempDewpointWater temp
2014-Nov-26 13:17N 35°05' E 139°41'810.7
2014-Nov-26 12:33N 35°11' E 139°46'1110.9
2014-Nov-26 11:33N 35°22' E 139°42'4 3.5
2014-Nov-26 10:31N 35°24' E 139°38'0 0.0
2014-Nov-26 09:31N 35°24' E 139°38'0 0.0
2014-Nov-26 08:31N 35°24' E 139°38'0 0.0
2014-Nov-26 07:31N 35°24' E 139°38'0 0.0
2014-Nov-26 06:31N 35°24' E 139°38'0 0.0
2014-Nov-26 05:31N 35°24' E 139°38'0 0.0
2014-Nov-26 04:31N 35°24' E 139°38'0 0.0
2014-Nov-26 03:31N 35°24' E 139°38'0 0.0
2014-Nov-26 02:31N 35°24' E 139°38'0 0.0
2014-Nov-26 01:31N 35°24' E 139°38'0 0.0
2014-Nov-26 00:31N 35°24' E 139°38'0 0.0
2014-Nov-25 23:31N 35°24' E 139°38'0 0.1
2014-Nov-25 22:33N 35°24' E 139°39'2 1.6
2014-Nov-25 21:33N 35°23' E 139°40'0 0.0
2014-Nov-25 20:33N 35°23' E 139°40'0 0.0
2014-Nov-25 19:33N 35°23' E 139°40'0 0.0
2014-Nov-25 18:33N 35°23' E 139°40'0 0.0
2014-Nov-25 17:33N 35°23' E 139°40'0 0.0
2014-Nov-25 16:33N 35°23' E 139°40'0 0.0
2014-Nov-25 15:33N 35°23' E 139°40'0 0.0
2014-Nov-25 14:33N 35°23' E 139°40'0 0.0
2014-Nov-25 13:33N 35°23' E 139°40'0 0.0
2014-Nov-25 12:33N 35°23' E 139°40'0 0.0
2014-Nov-25 11:33N 35°23' E 139°40'0 0.0
2014-Nov-25 10:33N 35°23' E 139°40'0 0.0
2014-Nov-25 09:33N 35°23' E 139°40'0 0.0
2014-Nov-25 08:33N 35°23' E 139°40'0 0.0
2014-Nov-25 07:33N 35°23' E 139°40'0 0.0
2014-Nov-25 06:33N 35°23' E 139°40'0 0.0
2014-Nov-25 05:33N 35°23' E 139°40'1 0.9
2014-Nov-25 04:33N 35°23' E 139°41'6 6.0
2014-Nov-25 03:34N 35°18' E 139°45'10 9.7
2014-Nov-25 02:32N 35°08' E 139°46'  
2014-Nov-19 21:27N 34°04' E 130°48'  
2014-Nov-17 13:21N 35°07' E 139°43'7 8.6
2014-Nov-17 12:33N 35°13' E 139°46'10 9.7
2014-Nov-17 11:34N 35°22' E 139°41'3 3.2
2014-Nov-17 10:31N 35°24' E 139°38'0 0.0
2014-Nov-17 09:31N 35°24' E 139°38'0 0.0
2014-Nov-17 08:31N 35°24' E 139°38'0 0.0
2014-Nov-17 07:31N 35°24' E 139°38'0 0.0
2014-Nov-17 06:31N 35°24' E 139°38'0 0.0
2014-Nov-17 05:31N 35°24' E 139°38'0 0.0
2014-Nov-17 04:31N 35°24' E 139°38'0 0.0
2014-Nov-17 03:31N 35°24' E 139°38'0 0.0
2014-Nov-17 02:31N 35°24' E 139°38'0 0.0
2014-Nov-17 01:28N 35°24' E 139°38'0 0.0
2014-Nov-17 00:31N 35°24' E 139°38'0 0.0
2014-Nov-16 23:31N 35°24' E 139°38'0 0.1
2014-Nov-16 22:33N 35°25' E 139°38'2 1.5
2014-Nov-16 21:29N 35°23' E 139°40'0 0.1
2014-Nov-16 20:32N 35°23' E 139°40'0 0.0
2014-Nov-16 19:32N 35°23' E 139°40'0 0.0
2014-Nov-16 18:32N 35°23' E 139°40'0 0.0
2014-Nov-16 17:32N 35°23' E 139°40'0 0.0
2014-Nov-16 16:32N 35°23' E 139°40'0 0.0
2014-Nov-16 15:32N 35°23' E 139°40'0 0.0
2014-Nov-16 14:32N 35°23' E 139°40'0 0.1
2014-Nov-16 13:32N 35°23' E 139°40'  
Track history (hours):
 
Tides and Currents Weather Stations Pressure Air Temp Water Temp Dewpoint Dewpoint Depression Visibility Wind Speed Wind Dir Waves Ship Positions

First Clarity

Last reported at 2014-Nov-26 13:17 UTC. Time now 2014-Nov-27 11:55 UTC.
Position N 35°05' E 139°41'.

Length 104 m; draft 5.7 m.

Type: Cargo ship. MMSI: 636014129.

Date/timePositionNaut miles runAvg speedWind from/ knotsBaromVisibWave heightAir tempDewpointWater temp
2014-Nov-26 13:17N 35°05' E 139°41'810.7
2014-Nov-26 12:33N 35°11' E 139°46'1110.9
2014-Nov-26 11:33N 35°22' E 139°42'4 3.5
2014-Nov-26 10:31N 35°24' E 139°38'0 0.0
2014-Nov-26 09:31N 35°24' E 139°38'0 0.0
2014-Nov-26 08:31N 35°24' E 139°38'0 0.0
2014-Nov-26 07:31N 35°24' E 139°38'0 0.0
2014-Nov-26 06:31N 35°24' E 139°38'0 0.0
2014-Nov-26 05:31N 35°24' E 139°38'0 0.0
2014-Nov-26 04:31N 35°24' E 139°38'0 0.0
2014-Nov-26 03:31N 35°24' E 139°38'0 0.0
2014-Nov-26 02:31N 35°24' E 139°38'0 0.0
2014-Nov-26 01:31N 35°24' E 139°38'0 0.0
2014-Nov-26 00:31N 35°24' E 139°38'0 0.0
2014-Nov-25 23:31N 35°24' E 139°38'0 0.1
2014-Nov-25 22:33N 35°24' E 139°39'2 1.6
2014-Nov-25 21:33N 35°23' E 139°40'0 0.0
2014-Nov-25 20:33N 35°23' E 139°40'0 0.0
2014-Nov-25 19:33N 35°23' E 139°40'0 0.0
2014-Nov-25 18:33N 35°23' E 139°40'0 0.0
2014-Nov-25 17:33N 35°23' E 139°40'0 0.0
2014-Nov-25 16:33N 35°23' E 139°40'0 0.0
2014-Nov-25 15:33N 35°23' E 139°40'0 0.0
2014-Nov-25 14:33N 35°23' E 139°40'0 0.0
2014-Nov-25 13:33N 35°23' E 139°40'0 0.0
2014-Nov-25 12:33N 35°23' E 139°40'0 0.0
2014-Nov-25 11:33N 35°23' E 139°40'0 0.0
2014-Nov-25 10:33N 35°23' E 139°40'0 0.0
2014-Nov-25 09:33N 35°23' E 139°40'0 0.0
2014-Nov-25 08:33N 35°23' E 139°40'0 0.0
2014-Nov-25 07:33N 35°23' E 139°40'0 0.0
2014-Nov-25 06:33N 35°23' E 139°40'0 0.0
2014-Nov-25 05:33N 35°23' E 139°40'1 0.9
2014-Nov-25 04:33N 35°23' E 139°41'6 6.0
2014-Nov-25 03:34N 35°18' E 139°45'10 9.7
2014-Nov-25 02:32N 35°08' E 139°46'  
2014-Nov-19 21:27N 34°04' E 130°48'  
2014-Nov-17 13:21N 35°07' E 139°43'7 8.6
2014-Nov-17 12:33N 35°13' E 139°46'10 9.7
2014-Nov-17 11:34N 35°22' E 139°41'3 3.2
2014-Nov-17 10:31N 35°24' E 139°38'0 0.0
2014-Nov-17 09:31N 35°24' E 139°38'0 0.0
2014-Nov-17 08:31N 35°24' E 139°38'0 0.0
2014-Nov-17 07:31N 35°24' E 139°38'0 0.0
2014-Nov-17 06:31N 35°24' E 139°38'0 0.0
2014-Nov-17 05:31N 35°24' E 139°38'0 0.0
2014-Nov-17 04:31N 35°24' E 139°38'0 0.0
2014-Nov-17 03:31N 35°24' E 139°38'0 0.0
2014-Nov-17 02:31N 35°24' E 139°38'0 0.0
2014-Nov-17 01:28N 35°24' E 139°38'0 0.0
2014-Nov-17 00:31N 35°24' E 139°38'0 0.0
2014-Nov-16 23:31N 35°24' E 139°38'0 0.1
2014-Nov-16 22:33N 35°25' E 139°38'2 1.5
2014-Nov-16 21:29N 35°23' E 139°40'0 0.1
2014-Nov-16 20:32N 35°23' E 139°40'0 0.0
2014-Nov-16 19:32N 35°23' E 139°40'0 0.0
2014-Nov-16 18:32N 35°23' E 139°40'0 0.0
2014-Nov-16 17:32N 35°23' E 139°40'0 0.0
2014-Nov-16 16:32N 35°23' E 139°40'0 0.0
2014-Nov-16 15:32N 35°23' E 139°40'0 0.0
2014-Nov-16 14:32N 35°23' E 139°40'0 0.1
2014-Nov-16 13:32N 35°23' E 139°40'  

Dump ship's entire track history